José Martí International Airport
MUHA : now visible

Airfield :











YOU CAN JOIN US ON...

 
LOGIN :

Register | Disclaimer

   EN    FR    IT 

 









Legend :    VFR   Marginal VFR   IFR   Intensive IFR   Very Intensive IFR
Visi :
Ceiling :
>= 8 km
>= 3000ft
5 to 8 km
1000 to 3000 ft
1500m to 5 km
500 to 1000 ft
800 to 1500m
200 to 500 ft
< 800m
< 200 ft
Symbols :   Thunderstorms  Fog  Heavy snow  Heavy precipitations  Wind > 20 kt






- Airport Elevation : 210 ft
- IATA code : HAV


MUHA - José Martí International

CURRENT METAR :
  • 041910Z 35008KT 310V010 8000 3000NW -TSRA FEW018CB BKN040 26/23 Q1015 RMK CB AT I/IV QUAD AD

EXPIRED METARs :
  • 041855Z 02009KT 8000 -RA FEW018CB BKN033 27/23 Q1015
  • 041845Z 01011KT 8000 -RA FEW018CB BKN033 27/24 Q1015 RMK CB AT I/IV QUAD AD
  • 041828Z 34020KT 310V010 5000 2000NW TSRA SCT018CB BKN033 27/24 Q1015 RMK CB AT I/IV QUAD AD
  • 041827Z 33018KT 2000 +TSRA OVC018CB 27/24 Q1015 RMK CB ALL QUAD AND OVER AD
  • 041821Z 27010KT 240V310 5000 2000SW TSRA SCT018CB BKN033 29/24 Q1015 RMK CB AT I/IV QUAD AD
  • 041812Z 24007KT 190V290 9000 VCTS FEW018CB BKN033 30/24 Q1015 RMK CB AT III/IV QUAD AD
  • 041755Z 01007KT 340V040 9999 FEW018TCU BKN033 31/25 Q1015
  • 041655Z VRB02KT 9999 BKN025 32/23 Q1016

TAF MUHA
Valid from the 04 at 18:00 until the 05 at 18:00 UTC


041700Z 0418/0518 VRB03KT 9000 SCT035
TEMPO 0418/0424 VRB10KT 4000 TSRA SCT020CB BKN025
MUFH FIR / North America



MET'MAP, your aeronautical weather chart ! - Copyright ORBIFLY December 2007 - Disclaimer

ORBIFLY MET'MAP TEAM :

Programming & Development : Alexandra Zaïnal
Concept & original design : Baudouin d'Aumeries
Assistance for programming : Marc-Olivier Méhu
Technical & hardware support : Manuel Goepfert

Contact : metmap@orbifly.com




SOURCES & CREDITS :

   NOAA       Earth
Advisory